createdAt,value
2023-04-26T00:00:57.672Z,30.83
2023-04-26T00:01:57.662Z,29.05
2023-04-26T00:02:57.799Z,29.63
2023-04-26T00:03:57.944Z,37.79
2023-04-26T00:04:57.842Z,35.64
2023-04-26T00:05:57.764Z,38.72
2023-04-26T00:06:57.635Z,35.19
2023-04-26T00:07:57.631Z,32.04
2023-04-26T00:08:57.638Z,35.48
2023-04-26T00:09:57.630Z,38.53
2023-04-26T00:10:57.629Z,37.66
2023-04-26T00:11:57.618Z,39.63
2023-04-26T00:12:57.611Z,37.44
2023-04-26T00:13:57.588Z,37.77
2023-04-26T00:14:57.598Z,37.33
2023-04-26T00:15:57.692Z,30.90
2023-04-26T00:16:57.592Z,23.38
2023-04-26T00:17:57.626Z,28.96
2023-04-26T00:18:57.597Z,31.59
2023-04-26T00:19:57.591Z,36.55
2023-04-26T00:20:57.587Z,42.66
2023-04-26T00:21:57.596Z,43.90
2023-04-26T00:22:57.682Z,45.00
2023-04-26T00:23:57.601Z,42.83
2023-04-26T00:24:57.597Z,41.78
2023-04-26T00:25:57.603Z,39.35
2023-04-26T00:26:57.617Z,38.35
2023-04-26T00:27:57.650Z,36.67
2023-04-26T00:28:57.623Z,40.30
2023-04-26T00:29:57.611Z,40.83
2023-04-26T00:30:57.624Z,43.17
2023-04-26T00:31:57.659Z,40.03
2023-04-26T00:32:57.682Z,41.53
2023-04-26T00:33:57.639Z,42.58
2023-04-26T00:34:57.685Z,42.70
2023-04-26T00:35:57.668Z,41.75
2023-04-26T00:36:57.692Z,45.10
2023-04-26T00:37:57.711Z,43.70
2023-04-26T00:38:57.738Z,39.44
2023-04-26T00:39:57.733Z,36.83
2023-04-26T00:40:57.745Z,38.25
2023-04-26T00:41:57.740Z,39.60
2023-04-26T00:42:57.723Z,38.32
2023-04-26T00:43:57.788Z,38.27
2023-04-26T00:44:57.887Z,37.80
2023-04-26T00:45:57.800Z,39.22
2023-04-26T00:46:57.796Z,38.83
2023-04-26T00:47:57.843Z,38.55
2023-04-26T00:48:57.801Z,38.90
2023-04-26T00:49:57.848Z,35.73
2023-04-26T00:50:57.831Z,37.22
2023-04-26T00:51:57.880Z,42.11
2023-04-26T00:52:57.926Z,39.70
2023-04-26T00:53:57.891Z,40.47
2023-04-26T00:54:58.878Z,40.97
2023-04-26T00:55:57.962Z,40.69
2023-04-26T00:56:57.924Z,42.28
2023-04-26T00:57:57.936Z,43.59
2023-04-26T00:58:57.940Z,40.52
2023-04-26T00:59:57.955Z,42.96
2023-04-26T01:00:58.015Z,49.52
2023-04-26T01:01:58.006Z,42.02
2023-04-26T01:02:58.090Z,41.25
2023-04-26T01:03:58.229Z,40.46
2023-04-26T01:04:58.007Z,43.05
2023-04-26T01:05:58.111Z,43.90
2023-04-26T01:06:58.067Z,46.73
2023-04-26T01:07:58.087Z,44.87
2023-04-26T01:08:58.108Z,45.16
2023-04-26T01:09:58.107Z,42.89
2023-04-26T01:10:58.120Z,44.78
2023-04-26T01:11:58.156Z,40.40
2023-04-26T01:12:58.137Z,36.01
2023-04-26T01:13:58.188Z,27.64
2023-04-26T01:14:58.214Z,35.44
2023-04-26T01:15:58.227Z,38.34
2023-04-26T01:16:58.257Z,40.21
2023-04-26T01:17:58.321Z,38.23
2023-04-26T01:18:58.278Z,44.38
2023-04-26T01:19:58.325Z,45.83
2023-04-26T01:20:58.440Z,43.58
2023-04-26T01:21:58.322Z,43.22
2023-04-26T01:22:58.358Z,46.21
2023-04-26T01:23:58.396Z,46.02
2023-04-26T01:24:58.448Z,37.25
2023-04-26T01:25:58.416Z,46.32
2023-04-26T01:26:58.466Z,47.07
2023-04-26T01:27:58.496Z,47.03
2023-04-26T01:28:58.486Z,47.88
2023-04-26T01:29:58.491Z,42.52
2023-04-26T01:30:58.538Z,40.51
2023-04-26T01:31:58.522Z,42.24
2023-04-26T01:32:58.576Z,41.02
2023-04-26T01:33:58.546Z,44.18
2023-04-26T01:34:58.583Z,48.28
2023-04-26T01:35:58.574Z,44.19
2023-04-26T01:36:58.605Z,42.26
2023-04-26T01:37:58.649Z,40.08
2023-04-26T01:38:58.646Z,43.90
2023-04-26T01:39:58.682Z,49.34
2023-04-26T01:40:58.707Z,47.75
2023-04-26T01:41:58.741Z,35.70
2023-04-26T01:42:58.721Z,39.11
2023-04-26T01:43:58.748Z,48.69
2023-04-26T01:44:58.762Z,52.29
2023-04-26T01:45:58.979Z,42.29
2023-04-26T01:46:58.810Z,41.61
2023-04-26T01:47:58.850Z,42.16
2023-04-26T01:48:58.810Z,50.36
2023-04-26T01:49:58.869Z,54.61
2023-04-26T01:50:58.869Z,41.27
2023-04-26T01:51:58.935Z,39.37
2023-04-26T01:52:58.915Z,39.28
2023-04-26T01:53:58.947Z,42.11
2023-04-26T01:54:58.955Z,43.33
2023-04-26T01:55:58.966Z,40.42
2023-04-26T01:56:58.973Z,43.16
2023-04-26T01:57:58.988Z,42.23
2023-04-26T01:58:59.004Z,45.04
2023-04-26T01:59:59.011Z,49.09
2023-04-26T02:00:59.009Z,47.61
2023-04-26T02:01:59.136Z,43.25
2023-04-26T02:02:59.154Z,46.81
2023-04-26T02:03:59.082Z,42.71
2023-04-26T02:04:59.133Z,43.34
2023-04-26T02:05:59.130Z,52.31
2023-04-26T02:06:59.135Z,47.81
2023-04-26T02:07:59.143Z,40.68
2023-04-26T02:08:59.227Z,47.40
2023-04-26T02:09:59.202Z,52.53
2023-04-26T02:10:59.239Z,56.13
2023-04-26T02:11:59.209Z,56.91
2023-04-26T02:12:59.196Z,57.20
2023-04-26T02:13:59.238Z,59.10
2023-04-26T02:14:59.253Z,53.34
2023-04-26T02:15:59.432Z,48.71
2023-04-26T02:16:59.283Z,52.06
2023-04-26T02:17:59.320Z,44.31
2023-04-26T02:18:59.332Z,42.96
2023-04-26T02:19:59.317Z,46.05
2023-04-26T02:20:59.348Z,47.26
2023-04-26T02:21:59.353Z,53.66
2023-04-26T02:22:59.353Z,55.14
2023-04-26T02:23:59.372Z,47.26
2023-04-26T02:24:59.561Z,45.58
2023-04-26T02:25:59.403Z,48.79
2023-04-26T02:26:59.402Z,44.54
2023-04-26T02:27:59.447Z,48.06
2023-04-26T02:28:59.433Z,55.78
2023-04-26T02:29:59.495Z,58.64
2023-04-26T02:30:59.520Z,44.18
2023-04-26T02:31:59.522Z,42.48
2023-04-26T02:32:59.558Z,55.36
2023-04-26T02:33:59.542Z,55.94
2023-04-26T02:34:59.591Z,45.81
2023-04-26T02:35:59.582Z,42.66
2023-04-26T02:36:59.586Z,40.99
2023-04-26T02:37:59.588Z,43.24
2023-04-26T02:38:59.637Z,43.68
2023-04-26T02:39:59.642Z,54.12
2023-04-26T02:40:59.678Z,56.03
2023-04-26T02:41:59.706Z,56.98
2023-04-26T02:42:59.682Z,62.99
2023-04-26T02:43:59.708Z,63.17
2023-04-26T02:44:59.722Z,60.28
2023-04-26T02:45:59.754Z,61.51
2023-04-26T02:46:59.787Z,59.83
2023-04-26T02:47:59.805Z,65.57
2023-04-26T02:48:59.791Z,56.38
2023-04-26T02:49:59.798Z,59.25
2023-04-26T02:50:59.824Z,53.18
2023-04-26T02:51:59.853Z,59.52
2023-04-26T02:52:59.895Z,64.80
2023-04-26T02:53:59.862Z,68.54
2023-04-26T02:54:59.905Z,70.69
2023-04-26T02:55:59.930Z,67.47
2023-04-26T02:56:59.926Z,61.09
2023-04-26T02:57:59.932Z,64.25
2023-04-26T02:59:00.041Z,66.07
2023-04-26T02:59:59.976Z,61.34
2023-04-26T03:01:01.579Z,68.11
2023-04-26T03:02:00.058Z,65.61
2023-04-26T03:03:00.215Z,66.24
2023-04-26T03:04:00.163Z,65.59
2023-04-26T03:05:00.059Z,66.12
2023-04-26T03:06:00.072Z,68.05
2023-04-26T03:07:00.124Z,57.80
2023-04-26T03:08:00.125Z,63.06
2023-04-26T03:09:00.139Z,59.44
2023-04-26T03:10:00.191Z,59.17
2023-04-26T03:11:00.200Z,62.69
2023-04-26T03:12:00.282Z,53.94
2023-04-26T03:13:00.268Z,62.64
2023-04-26T03:14:00.221Z,56.76
2023-04-26T03:15:00.313Z,64.32
2023-04-26T03:16:00.277Z,68.99
2023-04-26T03:17:00.424Z,64.44
2023-04-26T03:18:00.357Z,64.11
2023-04-26T03:19:00.346Z,65.62
2023-04-26T03:20:02.499Z,54.33
2023-04-26T03:21:00.499Z,61.42
2023-04-26T03:22:00.534Z,62.76
2023-04-26T03:23:00.529Z,62.80
2023-04-26T03:24:00.554Z,67.80
2023-04-26T03:25:00.554Z,63.30
2023-04-26T03:26:00.579Z,64.66
2023-04-26T03:27:00.588Z,67.60
2023-04-26T03:28:00.644Z,68.06
2023-04-26T03:29:00.667Z,62.83
2023-04-26T03:30:00.664Z,60.37
2023-04-26T03:31:00.696Z,58.10
2023-04-26T03:32:00.797Z,61.56
2023-04-26T03:33:00.749Z,62.77
2023-04-26T03:34:00.735Z,67.36
2023-04-26T03:35:00.754Z,63.29
2023-04-26T03:36:00.802Z,63.19
2023-04-26T03:37:00.797Z,70.22
2023-04-26T03:38:00.835Z,61.46
2023-04-26T03:39:00.852Z,60.20
2023-04-26T03:40:01.000Z,67.55
2023-04-26T03:41:00.900Z,65.52
2023-04-26T03:42:00.936Z,61.82
2023-04-26T03:43:00.989Z,68.87
2023-04-26T03:44:00.994Z,54.55
2023-04-26T03:45:01.084Z,59.24
2023-04-26T03:46:01.080Z,59.61
2023-04-26T03:47:01.058Z,61.42
2023-04-26T03:48:01.102Z,59.58
2023-04-26T03:49:01.094Z,61.17
2023-04-26T03:50:01.127Z,59.52
2023-04-26T03:51:01.162Z,66.44
2023-04-26T03:52:01.167Z,69.50
2023-04-26T03:53:01.219Z,70.21
2023-04-26T03:54:01.233Z,66.23
2023-04-26T03:55:01.210Z,67.14
2023-04-26T03:56:01.240Z,65.06
2023-04-26T03:57:01.302Z,68.61
2023-04-26T03:58:01.307Z,71.81
2023-04-26T03:59:01.394Z,73.14
2023-04-26T04:00:01.396Z,66.42
2023-04-26T04:01:01.378Z,65.35
2023-04-26T04:02:01.432Z,62.86
2023-04-26T04:03:01.595Z,68.06
2023-04-26T04:04:01.695Z,70.32
2023-04-26T04:05:01.591Z,71.71
2023-04-26T04:06:01.501Z,74.63
2023-04-26T04:07:01.548Z,71.37
2023-04-26T04:08:01.587Z,70.99
2023-04-26T04:09:01.654Z,74.46
2023-04-26T04:10:01.596Z,70.56
2023-04-26T04:11:01.636Z,75.96
2023-04-26T04:12:01.645Z,75.46
2023-04-26T04:13:01.698Z,72.00
2023-04-26T04:14:01.722Z,73.14
2023-04-26T04:15:01.730Z,74.85
2023-04-26T04:16:01.804Z,69.50
2023-04-26T04:17:01.885Z,74.22
2023-04-26T04:18:01.863Z,78.40
2023-04-26T04:19:01.855Z,70.01
2023-04-26T04:20:01.886Z,73.01
2023-04-26T04:21:01.925Z,82.92
2023-04-26T04:22:01.977Z,89.12
2023-04-26T04:23:01.951Z,90.67
2023-04-26T04:24:02.016Z,90.91
2023-04-26T04:25:02.077Z,93.84
2023-04-26T04:26:02.064Z,88.66
2023-04-26T04:27:02.099Z,94.15
2023-04-26T04:28:02.095Z,100.04
2023-04-26T04:29:02.128Z,106.54
2023-04-26T04:30:02.122Z,95.95
2023-04-26T04:31:02.211Z,103.23
2023-04-26T04:32:02.179Z,98.17
2023-04-26T04:33:02.272Z,100.19
2023-04-26T04:34:02.257Z,102.23
2023-04-26T04:35:02.315Z,107.14
2023-04-26T04:36:02.316Z,106.83
2023-04-26T04:37:02.346Z,105.63
2023-04-26T04:38:02.367Z,107.10
2023-04-26T04:39:02.393Z,109.74
2023-04-26T04:40:02.461Z,110.72
2023-04-26T04:41:02.495Z,111.89
2023-04-26T04:42:02.502Z,113.20
2023-04-26T04:43:02.537Z,114.52
2023-04-26T04:44:02.574Z,115.15
2023-04-26T04:45:02.606Z,121.01
2023-04-26T04:46:02.697Z,119.85
2023-04-26T04:47:02.686Z,123.02
2023-04-26T04:48:02.740Z,126.78
2023-04-26T04:49:02.759Z,123.63
2023-04-26T04:50:02.776Z,122.40
2023-04-26T04:51:02.830Z,119.96
2023-04-26T04:52:02.865Z,134.27
2023-04-26T04:53:02.978Z,148.38
2023-04-26T04:54:02.953Z,153.11
2023-04-26T04:55:02.989Z,154.92
2023-04-26T04:56:03.010Z,159.10
2023-04-26T04:57:03.050Z,163.41
2023-04-26T04:58:03.022Z,166.94
2023-04-26T04:59:03.056Z,170.79
2023-04-26T05:00:03.059Z,173.46
2023-04-26T05:01:03.076Z,183.66
2023-04-26T05:02:03.118Z,185.93
2023-04-26T05:03:03.241Z,185.40
2023-04-26T05:04:04.160Z,189.36
2023-04-26T05:05:03.156Z,193.14
2023-04-26T05:06:03.090Z,196.83
2023-04-26T05:07:03.104Z,195.42
2023-04-26T05:08:03.169Z,201.47
2023-04-26T05:09:03.157Z,206.99
2023-04-26T05:10:03.149Z,209.82
2023-04-26T05:11:03.121Z,211.82
2023-04-26T05:12:03.116Z,212.04
2023-04-26T05:13:03.108Z,214.99
2023-04-26T05:14:03.110Z,216.71
2023-04-26T05:15:03.085Z,218.26
2023-04-26T05:16:03.099Z,215.66
2023-04-26T05:17:03.049Z,220.68
2023-04-26T05:18:03.103Z,217.24
2023-04-26T05:19:03.046Z,220.21
2023-04-26T05:20:03.447Z,226.26
2023-04-26T05:21:03.070Z,227.42
2023-04-26T05:22:03.072Z,225.57
2023-04-26T05:23:03.130Z,229.26
2023-04-26T05:24:03.151Z,231.45
2023-04-26T05:25:03.167Z,229.39
2023-04-26T05:26:03.215Z,234.78
2023-04-26T05:27:03.242Z,236.57
2023-04-26T05:28:03.298Z,238.97
2023-04-26T05:29:03.334Z,237.36
2023-04-26T05:30:03.393Z,237.34
2023-04-26T05:31:03.368Z,242.62
2023-04-26T05:32:03.576Z,241.16
2023-04-26T05:33:03.551Z,244.79
2023-04-26T05:34:03.522Z,246.82
2023-04-26T05:35:03.607Z,241.50
2023-04-26T05:36:03.685Z,245.04
2023-04-26T05:37:03.674Z,239.01
2023-04-26T05:38:03.683Z,242.95
2023-04-26T05:39:03.709Z,241.80
2023-04-26T05:40:03.755Z,250.22
2023-04-26T05:41:03.796Z,245.96
2023-04-26T05:42:03.820Z,250.00
2023-04-26T05:43:03.872Z,247.29
2023-04-26T05:44:03.920Z,247.87
2023-04-26T05:45:03.950Z,246.00
2023-04-26T05:46:04.130Z,247.32
2023-04-26T05:47:04.028Z,248.67
2023-04-26T05:48:04.119Z,246.31
2023-04-26T05:49:04.029Z,247.32
2023-04-26T05:50:04.506Z,249.14
2023-04-26T05:51:04.030Z,248.06
2023-04-26T05:52:04.014Z,248.68
2023-04-26T05:53:04.024Z,249.11
2023-04-26T05:54:04.077Z,247.65
2023-04-26T05:55:04.473Z,245.15
2023-04-26T05:56:04.017Z,250.00
2023-04-26T05:57:04.020Z,245.51
2023-04-26T05:58:03.984Z,247.63
2023-04-26T05:59:04.001Z,242.86
2023-04-26T06:00:04.040Z,249.15
2023-04-26T06:01:03.980Z,245.86
2023-04-26T06:02:03.982Z,248.23
2023-04-26T06:03:04.147Z,248.10
2023-04-26T06:04:04.365Z,249.15
2023-04-26T06:05:04.741Z,246.31
2023-04-26T06:06:04.192Z,248.39
2023-04-26T06:07:04.177Z,247.35
2023-04-26T06:08:04.217Z,246.29
2023-04-26T06:09:04.289Z,245.15
2023-04-26T06:10:04.326Z,247.57
2023-04-26T06:11:04.351Z,247.50
2023-04-26T06:12:04.365Z,247.39
2023-04-26T06:13:04.450Z,248.05
2023-04-26T06:14:04.462Z,246.98
2023-04-26T06:15:04.516Z,246.86
2023-04-26T06:16:04.515Z,247.89
2023-04-26T06:17:04.596Z,247.58
2023-04-26T06:18:04.679Z,248.73
2023-04-26T06:19:04.644Z,248.60
2023-04-26T06:20:04.667Z,247.52
2023-04-26T06:21:04.680Z,248.57
2023-04-26T06:22:04.740Z,247.28
2023-04-26T06:23:04.790Z,250.00
2023-04-26T06:24:04.797Z,248.78
2023-04-26T06:25:04.831Z,249.16
2023-04-26T06:26:04.832Z,248.10
2023-04-26T06:27:04.846Z,248.08
2023-04-26T06:28:04.853Z,247.72
2023-04-26T06:29:04.900Z,248.43
2023-04-26T06:30:04.953Z,248.53
2023-04-26T06:31:04.967Z,246.35
2023-04-26T06:32:04.984Z,244.83
2023-04-26T06:33:05.038Z,245.22
2023-04-26T06:34:05.010Z,245.12
2023-04-26T06:35:05.066Z,248.60
2023-04-26T06:36:05.071Z,248.64
2023-04-26T06:37:05.108Z,248.95
2023-04-26T06:38:05.148Z,248.40
2023-04-26T06:39:05.191Z,249.32
2023-04-26T06:40:05.201Z,249.23
2023-04-26T06:41:05.247Z,246.71
2023-04-26T06:42:05.288Z,247.32
2023-04-26T06:43:05.305Z,247.86
2023-04-26T06:44:05.339Z,245.97
2023-04-26T06:45:05.390Z,245.61
2023-04-26T06:46:05.442Z,244.62
2023-04-26T06:47:05.464Z,245.68
2023-04-26T06:48:05.577Z,250.00
2023-04-26T06:49:05.552Z,249.51
2023-04-26T06:50:06.052Z,246.87
2023-04-26T06:51:05.629Z,245.47
2023-04-26T06:52:05.648Z,249.70
2023-04-26T06:53:05.656Z,249.47
2023-04-26T06:54:05.621Z,246.50
2023-04-26T06:55:05.656Z,244.91
2023-04-26T06:56:05.676Z,243.32
2023-04-26T06:57:05.716Z,243.20
2023-04-26T06:58:05.785Z,242.04
2023-04-26T06:59:05.787Z,243.37
2023-04-26T07:00:05.854Z,240.80
2023-04-26T07:01:05.906Z,239.16
2023-04-26T07:02:05.976Z,239.80
2023-04-26T07:03:06.126Z,238.61
2023-04-26T07:04:06.159Z,237.60
2023-04-26T07:05:06.284Z,236.05
2023-04-26T07:06:06.128Z,234.72
2023-04-26T07:07:06.191Z,234.28
2023-04-26T07:08:06.250Z,232.92
2023-04-26T07:09:06.311Z,233.74
2023-04-26T07:10:06.554Z,235.90
2023-04-26T07:11:06.342Z,235.35
2023-04-26T07:12:06.822Z,234.51
2023-04-26T07:13:08.197Z,235.24
2023-04-26T07:14:06.358Z,236.44
2023-04-26T07:15:06.378Z,235.44
2023-04-26T07:16:06.413Z,234.89
2023-04-26T07:17:06.344Z,234.56
2023-04-26T07:18:06.379Z,234.52
2023-04-26T07:19:06.300Z,233.68
2023-04-26T07:20:06.320Z,235.02
2023-04-26T07:21:06.299Z,234.97
2023-04-26T07:22:06.306Z,234.65
2023-04-26T07:23:06.276Z,234.98
2023-04-26T07:24:06.301Z,236.73
2023-04-26T07:25:06.246Z,236.69
2023-04-26T07:26:06.247Z,235.38
2023-04-26T07:27:06.227Z,236.36
2023-04-26T07:28:06.192Z,236.85
2023-04-26T07:29:06.237Z,238.06
2023-04-26T07:30:06.196Z,237.81
2023-04-26T07:31:08.436Z,236.78
2023-04-26T07:32:06.188Z,236.83
2023-04-26T07:33:06.276Z,236.94
2023-04-26T07:34:06.172Z,235.86
2023-04-26T07:35:06.180Z,237.11
2023-04-26T07:36:06.125Z,237.21
2023-04-26T07:37:06.192Z,237.31
2023-04-26T07:38:06.117Z,238.90
2023-04-26T07:39:06.105Z,239.90
2023-04-26T07:40:06.573Z,235.81
2023-04-26T07:41:06.064Z,233.80
2023-04-26T07:42:06.071Z,239.20
2023-04-26T07:43:06.039Z,237.60
2023-04-26T07:44:06.078Z,239.92
2023-04-26T07:45:06.017Z,241.23
2023-04-26T07:46:06.085Z,243.30
2023-04-26T07:47:06.082Z,245.52
2023-04-26T07:48:06.042Z,245.76
2023-04-26T07:49:05.952Z,245.05
2023-04-26T07:50:05.944Z,243.46
2023-04-26T07:51:05.946Z,241.02
2023-04-26T07:52:05.905Z,242.76
2023-04-26T07:53:05.885Z,244.44
2023-04-26T07:54:05.927Z,242.90
2023-04-26T07:55:05.867Z,240.67
2023-04-26T07:56:05.845Z,240.42
2023-04-26T07:57:05.818Z,240.58
2023-04-26T07:58:05.799Z,242.57
2023-04-26T07:59:05.771Z,242.89
2023-04-26T08:00:05.819Z,241.66
2023-04-26T08:01:05.750Z,241.69
2023-04-26T08:02:05.782Z,242.59
2023-04-26T08:03:05.821Z,243.40
2023-04-26T08:04:05.969Z,244.87
2023-04-26T08:05:05.854Z,244.69
2023-04-26T08:06:05.853Z,244.02
2023-04-26T08:07:05.634Z,244.77
2023-04-26T08:08:05.596Z,245.84
2023-04-26T08:09:05.591Z,245.93
2023-04-26T08:10:06.024Z,245.71
2023-04-26T08:11:05.556Z,246.31
2023-04-26T08:12:05.553Z,244.66
2023-04-26T08:13:05.550Z,245.50
2023-04-26T08:14:05.534Z,246.51
2023-04-26T08:15:05.486Z,246.91
2023-04-26T08:16:05.532Z,246.12
2023-04-26T08:17:05.627Z,244.83
2023-04-26T08:18:05.641Z,244.37
2023-04-26T08:19:05.631Z,245.71
2023-04-26T08:20:05.661Z,248.22
2023-04-26T08:21:05.739Z,246.70
2023-04-26T08:22:05.761Z,247.05
2023-04-26T08:23:05.771Z,249.61
2023-04-26T08:24:05.840Z,248.53
2023-04-26T08:25:05.879Z,246.95
2023-04-26T08:26:05.908Z,246.03
2023-04-26T08:27:05.939Z,247.68
2023-04-26T08:28:06.028Z,249.65
2023-04-26T08:29:06.050Z,249.88
2023-04-26T08:30:06.089Z,247.25
2023-04-26T08:31:06.179Z,247.34
2023-04-26T08:32:06.355Z,248.45
2023-04-26T08:33:06.263Z,246.02
2023-04-26T08:34:06.234Z,245.83
2023-04-26T08:35:06.561Z,244.80
2023-04-26T08:36:06.297Z,245.03
2023-04-26T08:37:06.374Z,244.74
2023-04-26T08:38:06.365Z,246.58
2023-04-26T08:39:06.398Z,248.88
2023-04-26T08:40:06.526Z,249.84
2023-04-26T08:41:06.485Z,243.57
2023-04-26T08:42:06.484Z,244.19
2023-04-26T08:43:06.502Z,242.17
2023-04-26T08:44:06.548Z,238.30
2023-04-26T08:45:07.032Z,242.36
2023-04-26T08:46:06.633Z,241.42
2023-04-26T08:47:06.624Z,236.99
2023-04-26T08:48:06.647Z,235.79
2023-04-26T08:49:06.643Z,234.72
2023-04-26T08:50:06.689Z,237.13
2023-04-26T08:51:07.039Z,242.03
2023-04-26T08:52:06.722Z,246.02
2023-04-26T08:53:06.736Z,248.67
2023-04-26T08:54:06.807Z,243.65
2023-04-26T08:55:06.828Z,232.31
2023-04-26T08:56:06.830Z,219.96
2023-04-26T08:57:06.897Z,209.61
2023-04-26T08:58:06.868Z,209.89
2023-04-26T08:59:07.068Z,218.49
2023-04-26T09:00:06.957Z,221.30
2023-04-26T09:01:06.976Z,224.24
2023-04-26T09:02:07.082Z,227.80
2023-04-26T09:03:07.155Z,230.29
2023-04-26T09:04:07.090Z,234.18
2023-04-26T09:05:07.096Z,233.40
2023-04-26T09:06:07.722Z,228.50
2023-04-26T09:07:07.061Z,224.02
2023-04-26T09:08:07.125Z,225.14
2023-04-26T09:09:07.123Z,224.47
2023-04-26T09:10:07.136Z,224.63
2023-04-26T09:11:07.189Z,225.88
2023-04-26T09:12:07.179Z,227.44
2023-04-26T09:13:07.219Z,227.97
2023-04-26T09:14:07.236Z,231.18
2023-04-26T09:15:07.280Z,227.05
2023-04-26T09:16:07.310Z,224.84
2023-04-26T09:17:07.298Z,224.01
2023-04-26T09:18:07.351Z,226.60
2023-04-26T09:19:07.337Z,227.21
2023-04-26T09:20:08.085Z,228.76
2023-04-26T09:21:07.433Z,227.58
2023-04-26T09:22:07.396Z,225.81
2023-04-26T09:23:07.440Z,226.94
2023-04-26T09:24:07.463Z,222.73
2023-04-26T09:25:07.450Z,219.07
2023-04-26T09:26:07.547Z,220.10
2023-04-26T09:27:07.518Z,221.23
2023-04-26T09:28:07.566Z,215.53
2023-04-26T09:29:07.564Z,219.24
2023-04-26T09:30:07.615Z,217.91
2023-04-26T09:31:07.722Z,215.91
2023-04-26T09:32:07.630Z,218.53
2023-04-26T09:33:07.681Z,222.87
2023-04-26T09:34:07.690Z,227.76
2023-04-26T09:35:07.695Z,230.64
2023-04-26T09:36:07.706Z,229.49
2023-04-26T09:37:07.723Z,229.73
2023-04-26T09:39:07.794Z,231.70
2023-04-26T09:40:07.819Z,232.86
2023-04-26T09:41:08.068Z,234.34
2023-04-26T09:42:07.812Z,241.36
2023-04-26T09:43:07.872Z,248.41
2023-04-26T09:44:08.541Z,247.24
2023-04-26T09:45:07.881Z,246.56
2023-04-26T09:46:08.088Z,248.56
2023-04-26T09:47:08.004Z,249.41
2023-04-26T09:48:07.971Z,233.52
2023-04-26T09:49:08.013Z,239.62
2023-04-26T09:50:08.018Z,233.91
2023-04-26T09:51:08.014Z,232.72
2023-04-26T09:52:08.287Z,232.23
2023-04-26T09:53:08.117Z,231.81
2023-04-26T09:54:08.057Z,233.53
2023-04-26T09:55:08.103Z,232.06
2023-04-26T09:56:08.114Z,227.33
2023-04-26T09:57:08.115Z,222.01
2023-04-26T09:58:08.096Z,218.50
2023-04-26T09:59:08.106Z,219.38
2023-04-26T10:00:08.117Z,222.88
2023-04-26T10:01:08.232Z,216.07
2023-04-26T10:02:08.108Z,209.06
2023-04-26T10:03:08.388Z,213.82
2023-04-26T10:04:08.257Z,213.30
2023-04-26T10:05:08.171Z,216.62
2023-04-26T10:06:08.212Z,216.22
2023-04-26T10:07:08.238Z,221.16
2023-04-26T10:08:08.239Z,221.00
2023-04-26T10:09:08.258Z,219.53
2023-04-26T10:10:08.285Z,210.87
2023-04-26T10:11:08.301Z,216.28
2023-04-26T10:12:08.327Z,216.33
2023-04-26T10:13:08.335Z,214.98
2023-04-26T10:14:08.407Z,214.53
2023-04-26T10:15:15.416Z,210.41
2023-04-26T10:16:08.547Z,210.51
2023-04-26T10:17:08.369Z,210.47
2023-04-26T10:18:08.454Z,212.63
2023-04-26T10:19:08.367Z,216.66
2023-04-26T10:20:08.365Z,226.47
2023-04-26T10:21:08.372Z,228.24
2023-04-26T10:22:08.322Z,227.38
2023-04-26T10:23:08.309Z,228.28
2023-04-26T10:24:08.273Z,228.40
2023-04-26T10:25:08.255Z,229.47
2023-04-26T10:26:08.272Z,229.39
2023-04-26T10:27:08.257Z,230.24
2023-04-26T10:28:08.271Z,228.94
2023-04-26T10:29:08.355Z,226.81
2023-04-26T10:30:08.203Z,227.99
2023-04-26T10:31:08.231Z,229.05
2023-04-26T10:32:08.282Z,232.31
2023-04-26T10:33:08.213Z,235.30
2023-04-26T10:34:09.131Z,233.36
2023-04-26T10:35:08.105Z,226.68
2023-04-26T10:36:08.607Z,216.80
2023-04-26T10:37:08.111Z,216.76
2023-04-26T10:38:08.068Z,223.29
2023-04-26T10:39:08.055Z,234.65
2023-04-26T10:40:08.084Z,239.78
2023-04-26T10:41:08.047Z,249.83
2023-04-26T10:42:07.999Z,250.00
2023-04-26T10:43:07.980Z,245.92
2023-04-26T10:44:07.937Z,246.12
2023-04-26T10:45:07.986Z,242.36
2023-04-26T10:46:07.986Z,239.62
2023-04-26T10:47:07.904Z,236.84
2023-04-26T10:48:07.908Z,234.91
2023-04-26T10:49:07.859Z,237.59
2023-04-26T10:50:07.844Z,238.92
2023-04-26T10:51:07.814Z,239.10
2023-04-26T10:52:07.810Z,239.22
2023-04-26T10:53:07.781Z,240.57
2023-04-26T10:54:07.780Z,241.64
2023-04-26T10:55:07.878Z,241.85
2023-04-26T10:56:07.730Z,239.12
2023-04-26T10:57:07.671Z,236.10
2023-04-26T10:58:07.677Z,233.98
2023-04-26T10:59:18.030Z,233.45
2023-04-26T11:00:08.620Z,231.21
2023-04-26T11:01:07.705Z,226.28
2023-04-26T11:02:07.615Z,223.08
2023-04-26T11:03:07.661Z,219.78
2023-04-26T11:04:07.671Z,216.71
2023-04-26T11:05:07.573Z,213.76
2023-04-26T11:06:07.560Z,209.50
2023-04-26T11:07:07.543Z,209.17
2023-04-26T11:08:07.493Z,202.71
2023-04-26T11:09:07.455Z,200.69
2023-04-26T11:10:07.448Z,193.37
2023-04-26T11:11:07.446Z,191.54
2023-04-26T11:12:07.401Z,190.55
2023-04-26T11:13:07.384Z,195.01
2023-04-26T11:14:07.355Z,194.55
2023-04-26T11:15:07.368Z,190.48
2023-04-26T11:16:07.329Z,189.48
2023-04-26T11:17:07.325Z,190.08
2023-04-26T11:18:07.319Z,185.64
2023-04-26T11:19:07.276Z,190.08
2023-04-26T11:20:07.253Z,195.04
2023-04-26T11:21:07.414Z,196.95
2023-04-26T11:22:07.191Z,192.95
2023-04-26T11:23:07.213Z,193.39
2023-04-26T11:24:07.239Z,183.48
2023-04-26T11:25:07.235Z,176.50
2023-04-26T11:26:07.629Z,174.62
2023-04-26T11:27:07.249Z,180.68
2023-04-26T11:28:07.259Z,176.86
2023-04-26T11:29:07.250Z,174.19
2023-04-26T11:30:07.249Z,178.70
2023-04-26T11:31:07.698Z,183.12
2023-04-26T11:32:07.239Z,187.65
2023-04-26T11:33:07.254Z,190.89
2023-04-26T11:34:07.193Z,194.43
2023-04-26T11:35:07.211Z,196.81
2023-04-26T11:36:07.183Z,195.98
2023-04-26T11:37:07.257Z,195.88
2023-04-26T11:38:07.205Z,195.53
2023-04-26T11:39:07.215Z,197.06
2023-04-26T11:40:07.259Z,193.78
2023-04-26T11:41:07.259Z,193.47
2023-04-26T11:42:07.276Z,193.31
2023-04-26T11:43:07.215Z,193.91
2023-04-26T11:44:07.429Z,195.87
2023-04-26T11:45:07.198Z,201.82
2023-04-26T11:46:07.246Z,199.46
2023-04-26T11:47:07.160Z,204.28
2023-04-26T11:48:07.180Z,202.39
2023-04-26T11:49:07.099Z,195.53
2023-04-26T11:50:07.087Z,192.72
2023-04-26T11:51:07.235Z,192.95
2023-04-26T11:52:07.074Z,191.95
2023-04-26T11:53:07.036Z,189.57
2023-04-26T11:54:07.020Z,186.28
2023-04-26T11:55:07.004Z,186.69
2023-04-26T11:56:07.017Z,188.89
2023-04-26T11:57:06.979Z,186.91
2023-04-26T11:58:06.967Z,187.62
2023-04-26T11:59:06.955Z,190.20
2023-04-26T12:00:07.068Z,193.08
2023-04-26T12:01:06.977Z,192.57
2023-04-26T12:02:06.994Z,184.51
2023-04-26T12:03:07.225Z,182.07
2023-04-26T12:04:07.044Z,182.70
2023-04-26T12:05:14.602Z,180.33
2023-04-26T12:06:06.972Z,180.66
2023-04-26T12:07:06.955Z,180.80
2023-04-26T12:08:06.928Z,180.81
2023-04-26T12:09:06.901Z,180.03
2023-04-26T12:10:06.880Z,177.56
2023-04-26T12:11:06.879Z,176.63
2023-04-26T12:12:06.861Z,176.24
2023-04-26T12:13:06.824Z,176.29
2023-04-26T12:14:06.821Z,177.89
2023-04-26T12:15:06.823Z,176.56
2023-04-26T12:16:15.105Z,176.24
2023-04-26T12:17:07.860Z,176.57
2023-04-26T12:18:06.795Z,178.07
2023-04-26T12:19:06.711Z,181.74
2023-04-26T12:20:06.704Z,187.07
2023-04-26T12:21:06.721Z,189.01
2023-04-26T12:22:06.683Z,185.82
2023-04-26T12:23:06.646Z,187.25
2023-04-26T12:24:06.650Z,182.54
2023-04-26T12:25:06.639Z,181.21
2023-04-26T12:26:06.608Z,176.04
2023-04-26T12:27:06.610Z,172.36
2023-04-26T12:28:06.528Z,172.75
2023-04-26T12:29:06.514Z,178.00
2023-04-26T12:30:06.523Z,175.73
2023-04-26T12:31:06.543Z,174.92
2023-04-26T12:32:06.561Z,175.16
2023-04-26T12:33:16.391Z,176.02
2023-04-26T12:34:07.496Z,176.04
2023-04-26T12:35:06.470Z,176.19
2023-04-26T12:36:06.472Z,178.83
2023-04-26T12:37:06.420Z,174.44
2023-04-26T12:38:06.407Z,177.01